Harbour Grace, Canada
Current Conditions -  °F | °C
As of 10:42 PM on Monday 20 Oct 2014 (Local Time) from CYYT Reporting Station
Rain Showers Rain Showers  
Wind Chill: 40°   Ceiling: 3000
Heat Index: 48°   Visibility: 15mi
Dew Point: 41°   Wind: 26mph
Humidity: 76%   Direction: 250°WSW
Pressure: 29.71"   Gusts: 43mph
Location:  47.68°N, 53.25°W
Report Text: CYYT 210042Z 25023G37KT 15SM -SHRA OVC030 09/05 A2971 RMK SC8 SLP062
Loading
Personal Weather Stations






























Interactive Weather Map
Tropical Storm Tracking
New forecast layout! Learn more

10-Day Weather Forecast

Advertisements
Track Severe Weather on mobile